sensor_id;sensor_type;location;lat;lon;timestamp;pressure;altitude;pressure_sealevel;temperature;humidity
16595;BME280;8410;52.532;13.336;2022-12-07T00:01:05;100873.44;;;4.54;93.30
16595;BME280;8410;52.532;13.336;2022-12-07T00:07:31;100857.19;;;4.30;94.63
16595;BME280;8410;52.532;13.336;2022-12-07T00:10:25;100862.34;;;4.52;93.50
16595;BME280;8410;52.532;13.336;2022-12-07T00:16:15;100851.53;;;5.04;90.91
16595;BME280;8410;52.532;13.336;2022-12-07T00:18:44;100855.75;;;4.57;91.00
16595;BME280;8410;52.532;13.336;2022-12-07T00:21:13;100854.25;;;4.62;91.27
16595;BME280;8410;52.532;13.336;2022-12-07T00:23:42;100846.47;;;4.59;90.84
16595;BME280;8410;52.532;13.336;2022-12-07T00:26:12;100854.59;;;4.49;90.24
16595;BME280;8410;52.532;13.336;2022-12-07T00:28:40;100838.00;;;4.60;88.98
16595;BME280;8410;52.532;13.336;2022-12-07T00:31:09;100837.97;;;4.81;90.36
16595;BME280;8410;52.532;13.336;2022-12-07T00:33:38;100830.25;;;5.52;88.30
16595;BME280;8410;52.532;13.336;2022-12-07T00:36:08;100830.50;;;5.85;86.17
16595;BME280;8410;52.532;13.336;2022-12-07T00:38:37;100831.94;;;5.77;85.79
16595;BME280;8410;52.532;13.336;2022-12-07T00:41:07;100831.81;;;5.98;85.43
16595;BME280;8410;52.532;13.336;2022-12-07T00:43:36;100827.50;;;5.46;84.41
16595;BME280;8410;52.532;13.336;2022-12-07T00:46:04;100828.19;;;5.18;87.49
16595;BME280;8410;52.532;13.336;2022-12-07T00:48:31;100822.75;;;5.82;85.37
16595;BME280;8410;52.532;13.336;2022-12-07T00:51:00;100826.06;;;5.80;83.36
16595;BME280;8410;52.532;13.336;2022-12-07T00:53:29;100824.19;;;5.48;83.34
16595;BME280;8410;52.532;13.336;2022-12-07T00:56:05;100831.63;;;4.72;84.12
16595;BME280;8410;52.532;13.336;2022-12-07T00:58:32;100822.00;;;4.87;85.33
16595;BME280;8410;52.532;13.336;2022-12-07T01:01:00;100816.56;;;4.78;86.04
16595;BME280;8410;52.532;13.336;2022-12-07T01:03:28;100822.28;;;4.72;84.78
16595;BME280;8410;52.532;13.336;2022-12-07T01:05:57;100814.50;;;5.16;84.71
16595;BME280;8410;52.532;13.336;2022-12-07T01:08:27;100817.41;;;4.78;84.47
16595;BME280;8410;52.532;13.336;2022-12-07T01:10:59;100813.75;;;5.18;84.43
16595;BME280;8410;52.532;13.336;2022-12-07T01:13:27;100811.13;;;5.65;82.85
16595;BME280;8410;52.532;13.336;2022-12-07T01:15:57;100802.22;;;5.53;82.04
16595;BME280;8410;52.532;13.336;2022-12-07T01:18:26;100797.31;;;5.60;80.65
16595;BME280;8410;52.532;13.336;2022-12-07T01:20:58;100794.09;;;5.91;81.36
16595;BME280;8410;52.532;13.336;2022-12-07T01:23:27;100799.31;;;5.43;81.50
16595;BME280;8410;52.532;13.336;2022-12-07T01:25:55;100792.38;;;5.64;81.99
16595;BME280;8410;52.532;13.336;2022-12-07T01:28:23;100793.09;;;5.87;82.56
16595;BME280;8410;52.532;13.336;2022-12-07T01:31:02;100794.56;;;6.05;80.96
16595;BME280;8410;52.532;13.336;2022-12-07T01:33:31;100787.75;;;6.05;80.24
16595;BME280;8410;52.532;13.336;2022-12-07T01:36:03;100788.25;;;5.93;80.61
16595;BME280;8410;52.532;13.336;2022-12-07T01:38:32;100785.34;;;6.10;80.24
16595;BME280;8410;52.532;13.336;2022-12-07T01:41:01;100787.75;;;6.05;79.69
16595;BME280;8410;52.532;13.336;2022-12-07T01:43:30;100786.13;;;6.07;79.47
16595;BME280;8410;52.532;13.336;2022-12-07T01:45:59;100786.16;;;5.56;80.45
16595;BME280;8410;52.532;13.336;2022-12-07T01:48:30;100780.75;;;5.74;79.42
16595;BME280;8410;52.532;13.336;2022-12-07T01:51:01;100780.16;;;5.56;81.90
16595;BME280;8410;52.532;13.336;2022-12-07T01:53:34;100779.19;;;5.52;80.20
16595;BME280;8410;52.532;13.336;2022-12-07T01:56:04;100769.63;;;5.97;80.50
16595;BME280;8410;52.532;13.336;2022-12-07T01:58:33;100769.63;;;5.72;80.72
16595;BME280;8410;52.532;13.336;2022-12-07T02:01:00;100767.56;;;5.87;79.88
16595;BME280;8410;52.532;13.336;2022-12-07T02:03:32;100764.09;;;5.85;78.45
16595;BME280;8410;52.532;13.336;2022-12-07T02:06:02;100762.13;;;6.02;79.44
16595;BME280;8410;52.532;13.336;2022-12-07T02:08:31;100753.44;;;5.97;79.74
16595;BME280;8410;52.532;13.336;2022-12-07T02:10:59;100756.00;;;5.97;78.88
16595;BME280;8410;52.532;13.336;2022-12-07T02:13:30;100755.22;;;6.00;79.83
16595;BME280;8410;52.532;13.336;2022-12-07T02:16:09;100755.94;;;5.95;79.39
16595;BME280;8410;52.532;13.336;2022-12-07T02:18:47;100745.59;;;5.92;79.50
16595;BME280;8410;52.532;13.336;2022-12-07T02:24:45;100745.13;;;5.51;82.21
16595;BME280;8410;52.532;13.336;2022-12-07T02:27:33;100748.28;;;5.70;79.98
16595;BME280;8410;52.532;13.336;2022-12-07T02:30:05;100744.72;;;5.14;83.47
16595;BME280;8410;52.532;13.336;2022-12-07T02:32:42;100744.47;;;5.07;82.79
16595;BME280;8410;52.532;13.336;2022-12-07T02:35:14;100740.44;;;5.38;81.24
16595;BME280;8410;52.532;13.336;2022-12-07T02:37:51;100740.56;;;4.45;84.05
16595;BME280;8410;52.532;13.336;2022-12-07T02:40:26;100726.13;;;5.18;83.02
16595;BME280;8410;52.532;13.336;2022-12-07T02:43:00;100727.41;;;5.30;82.46
16595;BME280;8410;52.532;13.336;2022-12-07T02:45:31;100717.78;;;5.22;82.86
16595;BME280;8410;52.532;13.336;2022-12-07T02:48:00;100722.53;;;5.64;81.80
16595;BME280;8410;52.532;13.336;2022-12-07T02:50:28;100719.28;;;5.42;81.33
16595;BME280;8410;52.532;13.336;2022-12-07T02:52:56;100713.56;;;5.77;82.10
16595;BME280;8410;52.532;13.336;2022-12-07T02:55:26;100718.78;;;4.08;87.44
16595;BME280;8410;52.532;13.336;2022-12-07T02:58:07;100711.31;;;5.07;84.32
16595;BME280;8410;52.532;13.336;2022-12-07T03:00:46;100707.81;;;4.80;86.72
16595;BME280;8410;52.532;13.336;2022-12-07T03:03:19;100711.31;;;5.59;83.94
16595;BME280;8410;52.532;13.336;2022-12-07T03:06:00;100704.84;;;5.43;83.90
16595;BME280;8410;52.532;13.336;2022-12-07T03:08:38;100692.28;;;4.98;84.25
16595;BME280;8410;52.532;13.336;2022-12-07T03:11:10;100690.44;;;5.72;84.44
16595;BME280;8410;52.532;13.336;2022-12-07T03:13:48;100680.91;;;5.14;84.02
16595;BME280;8410;52.532;13.336;2022-12-07T03:16:20;100679.31;;;4.68;85.31
16595;BME280;8410;52.532;13.336;2022-12-07T03:18:51;100678.03;;;5.04;84.59
16595;BME280;8410;52.532;13.336;2022-12-07T03:21:21;100676.88;;;5.73;83.48
16595;BME280;8410;52.532;13.336;2022-12-07T03:23:53;100672.31;;;5.91;83.13
16595;BME280;8410;52.532;13.336;2022-12-07T03:26:28;100668.34;;;5.20;86.44
16595;BME280;8410;52.532;13.336;2022-12-07T03:29:01;100657.78;;;5.62;84.60
16595;BME280;8410;52.532;13.336;2022-12-07T03:31:34;100642.03;;;6.04;84.18
16595;BME280;8410;52.532;13.336;2022-12-07T03:34:07;100640.75;;;6.18;83.10
16595;BME280;8410;52.532;13.336;2022-12-07T03:36:41;100625.84;;;6.33;82.58
16595;BME280;8410;52.532;13.336;2022-12-07T03:39:17;100630.47;;;6.15;82.67
16595;BME280;8410;52.532;13.336;2022-12-07T03:41:49;100628.28;;;6.29;82.74
16595;BME280;8410;52.532;13.336;2022-12-07T03:44:17;100627.25;;;5.65;82.74
16595;BME280;8410;52.532;13.336;2022-12-07T03:46:52;100615.97;;;6.15;83.61
16595;BME280;8410;52.532;13.336;2022-12-07T03:49:30;100619.13;;;5.78;85.77
16595;BME280;8410;52.532;13.336;2022-12-07T03:52:03;100612.31;;;6.37;83.54
16595;BME280;8410;52.532;13.336;2022-12-07T03:54:39;100609.53;;;5.71;83.87
16595;BME280;8410;52.532;13.336;2022-12-07T03:57:10;100592.69;;;6.05;83.98
16595;BME280;8410;52.532;13.336;2022-12-07T03:59:39;100606.41;;;5.52;87.14
16595;BME280;8410;52.532;13.336;2022-12-07T04:02:11;100600.38;;;5.49;87.34
16595;BME280;8410;52.532;13.336;2022-12-07T04:04:41;100606.72;;;5.62;87.37
16595;BME280;8410;52.532;13.336;2022-12-07T04:07:09;100600.72;;;5.61;85.27
16595;BME280;8410;52.532;13.336;2022-12-07T04:09:39;100595.63;;;5.90;85.59
16595;BME280;8410;52.532;13.336;2022-12-07T04:12:06;100590.88;;;5.73;86.43
16595;BME280;8410;52.532;13.336;2022-12-07T04:14:34;100583.44;;;5.52;89.22
16595;BME280;8410;52.532;13.336;2022-12-07T04:17:01;100589.09;;;5.42;86.67
16595;BME280;8410;52.532;13.336;2022-12-07T04:19:32;100585.19;;;5.53;87.28
16595;BME280;8410;52.532;13.336;2022-12-07T04:22:02;100576.63;;;5.80;87.60
16595;BME280;8410;52.532;13.336;2022-12-07T04:24:31;100575.22;;;5.91;86.62
16595;BME280;8410;52.532;13.336;2022-12-07T04:26:59;100579.34;;;5.58;88.17
16595;BME280;8410;52.532;13.336;2022-12-07T04:29:26;100565.88;;;5.92;88.72
16595;BME280;8410;52.532;13.336;2022-12-07T04:31:54;100563.47;;;5.68;87.84
16595;BME280;8410;52.532;13.336;2022-12-07T04:34:22;100560.38;;;5.49;88.88
16595;BME280;8410;52.532;13.336;2022-12-07T04:36:50;100551.00;;;6.07;87.30
16595;BME280;8410;52.532;13.336;2022-12-07T04:39:20;100546.50;;;5.99;87.59
16595;BME280;8410;52.532;13.336;2022-12-07T04:41:48;100549.00;;;5.67;88.07
16595;BME280;8410;52.532;13.336;2022-12-07T04:44:16;100544.34;;;6.12;86.94
16595;BME280;8410;52.532;13.336;2022-12-07T04:46:45;100549.03;;;6.29;86.73
16595;BME280;8410;52.532;13.336;2022-12-07T04:49:13;100548.53;;;5.51;86.80
16595;BME280;8410;52.532;13.336;2022-12-07T04:51:41;100546.97;;;5.28;90.50
16595;BME280;8410;52.532;13.336;2022-12-07T04:54:11;100544.84;;;6.01;88.70
16595;BME280;8410;52.532;13.336;2022-12-07T04:56:39;100551.09;;;5.51;87.26
16595;BME280;8410;52.532;13.336;2022-12-07T04:59:07;100548.63;;;5.55;90.65
16595;BME280;8410;52.532;13.336;2022-12-07T05:01:34;100548.66;;;5.27;89.71
16595;BME280;8410;52.532;13.336;2022-12-07T05:04:02;100547.59;;;5.21;90.33
16595;BME280;8410;52.532;13.336;2022-12-07T05:06:30;100551.22;;;5.00;91.02
16595;BME280;8410;52.532;13.336;2022-12-07T05:08:58;100544.03;;;5.16;91.71
16595;BME280;8410;52.532;13.336;2022-12-07T05:11:26;100552.56;;;5.45;91.25
16595;BME280;8410;52.532;13.336;2022-12-07T05:14:10;100543.81;;;5.37;90.80
16595;BME280;8410;52.532;13.336;2022-12-07T05:16:38;100543.47;;;4.97;92.17
16595;BME280;8410;52.532;13.336;2022-12-07T05:19:07;100521.88;;;5.72;91.23
16595;BME280;8410;52.532;13.336;2022-12-07T05:21:35;100525.38;;;5.45;88.91
16595;BME280;8410;52.532;13.336;2022-12-07T05:24:03;100524.06;;;5.88;91.09
16595;BME280;8410;52.532;13.336;2022-12-07T05:26:32;100528.63;;;5.70;90.33
16595;BME280;8410;52.532;13.336;2022-12-07T05:29:00;100526.09;;;6.32;89.20
16595;BME280;8410;52.532;13.336;2022-12-07T05:31:27;100523.22;;;5.89;89.17
16595;BME280;8410;52.532;13.336;2022-12-07T05:33:55;100518.28;;;5.94;89.53
16595;BME280;8410;52.532;13.336;2022-12-07T05:36:23;100526.09;;;5.41;92.23
16595;BME280;8410;52.532;13.336;2022-12-07T05:38:50;100514.84;;;6.25;89.73
16595;BME280;8410;52.532;13.336;2022-12-07T05:41:18;100517.22;;;6.17;88.07
16595;BME280;8410;52.532;13.336;2022-12-07T05:44:05;100516.47;;;5.91;88.82
16595;BME280;8410;52.532;13.336;2022-12-07T05:46:33;100508.69;;;5.58;91.90
16595;BME280;8410;52.532;13.336;2022-12-07T05:49:01;100502.66;;;5.55;90.33
16595;BME280;8410;52.532;13.336;2022-12-07T05:51:28;100497.63;;;6.18;90.38
16595;BME280;8410;52.532;13.336;2022-12-07T05:53:56;100506.75;;;5.49;92.13
16595;BME280;8410;52.532;13.336;2022-12-07T05:56:23;100496.72;;;6.16;91.03
16595;BME280;8410;52.532;13.336;2022-12-07T05:58:53;100489.94;;;5.86;90.57
16595;BME280;8410;52.532;13.336;2022-12-07T06:01:39;100487.84;;;5.43;93.25
16595;BME280;8410;52.532;13.336;2022-12-07T06:04:07;100484.34;;;6.31;91.23
16595;BME280;8410;52.532;13.336;2022-12-07T06:06:35;100485.28;;;6.02;92.11
16595;BME280;8410;52.532;13.336;2022-12-07T06:09:02;100475.44;;;6.17;90.39
16595;BME280;8410;52.532;13.336;2022-12-07T06:11:30;100477.72;;;6.39;91.03
16595;BME280;8410;52.532;13.336;2022-12-07T06:14:15;100472.94;;;6.20;91.42
16595;BME280;8410;52.532;13.336;2022-12-07T06:16:44;100475.75;;;6.29;89.48
16595;BME280;8410;52.532;13.336;2022-12-07T06:19:11;100473.41;;;6.37;89.34
16595;BME280;8410;52.532;13.336;2022-12-07T06:21:39;100468.81;;;5.62;94.78
16595;BME280;8410;52.532;13.336;2022-12-07T06:24:09;100472.25;;;5.34;94.18
16595;BME280;8410;52.532;13.336;2022-12-07T06:26:38;100465.25;;;5.87;92.59
16595;BME280;8410;52.532;13.336;2022-12-07T06:29:06;100467.59;;;5.79;91.09
16595;BME280;8410;52.532;13.336;2022-12-07T06:31:33;100467.94;;;5.91;94.20
16595;BME280;8410;52.532;13.336;2022-12-07T06:34:05;100463.03;;;5.67;93.30
16595;BME280;8410;52.532;13.336;2022-12-07T06:36:33;100464.34;;;6.16;92.33
16595;BME280;8410;52.532;13.336;2022-12-07T06:39:01;100467.19;;;6.27;91.25
16595;BME280;8410;52.532;13.336;2022-12-07T06:41:29;100478.25;;;6.26;91.74
16595;BME280;8410;52.532;13.336;2022-12-07T06:43:57;100469.50;;;6.18;92.02
16595;BME280;8410;52.532;13.336;2022-12-07T06:46:25;100465.94;;;6.45;90.83
16595;BME280;8410;52.532;13.336;2022-12-07T06:48:52;100466.81;;;6.47;90.15
16595;BME280;8410;52.532;13.336;2022-12-07T06:51:21;100463.09;;;6.34;89.83
16595;BME280;8410;52.532;13.336;2022-12-07T06:53:49;100469.84;;;6.32;90.07
16595;BME280;8410;52.532;13.336;2022-12-07T06:56:16;100464.09;;;6.40;91.25
16595;BME280;8410;52.532;13.336;2022-12-07T06:58:44;100453.88;;;6.40;90.43
16595;BME280;8410;52.532;13.336;2022-12-07T07:01:13;100456.50;;;6.42;90.30
16595;BME280;8410;52.532;13.336;2022-12-07T07:03:41;100464.38;;;5.86;92.67
16595;BME280;8410;52.532;13.336;2022-12-07T07:06:10;100467.03;;;6.21;94.09
16595;BME280;8410;52.532;13.336;2022-12-07T07:08:39;100460.63;;;6.73;90.36
16595;BME280;8410;52.532;13.336;2022-12-07T07:11:08;100454.28;;;6.23;90.45
16595;BME280;8410;52.532;13.336;2022-12-07T07:13:36;100462.56;;;6.14;92.06
16595;BME280;8410;52.532;13.336;2022-12-07T07:16:04;100465.81;;;6.07;90.77
16595;BME280;8410;52.532;13.336;2022-12-07T07:18:32;100462.94;;;5.94;93.17
16595;BME280;8410;52.532;13.336;2022-12-07T07:20:59;100472.00;;;5.55;92.73
16595;BME280;8410;52.532;13.336;2022-12-07T07:23:27;100467.56;;;6.09;94.81
16595;BME280;8410;52.532;13.336;2022-12-07T07:25:56;100466.81;;;6.47;90.77
16595;BME280;8410;52.532;13.336;2022-12-07T07:28:23;100470.97;;;5.78;92.91
16595;BME280;8410;52.532;13.336;2022-12-07T07:30:51;100470.56;;;6.26;92.10
16595;BME280;8410;52.532;13.336;2022-12-07T07:33:18;100459.00;;;6.40;90.71
16595;BME280;8410;52.532;13.336;2022-12-07T07:35:46;100457.28;;;6.76;91.38
16595;BME280;8410;52.532;13.336;2022-12-07T07:38:13;100455.94;;;6.21;91.76
16595;BME280;8410;52.532;13.336;2022-12-07T07:40:41;100469.00;;;6.31;90.95
16595;BME280;8410;52.532;13.336;2022-12-07T07:43:10;100470.00;;;5.14;95.60
16595;BME280;8410;52.532;13.336;2022-12-07T07:45:37;100472.16;;;6.21;92.08
16595;BME280;8410;52.532;13.336;2022-12-07T07:48:05;100464.69;;;6.65;89.18
16595;BME280;8410;52.532;13.336;2022-12-07T07:50:33;100473.25;;;6.31;89.11
16595;BME280;8410;52.532;13.336;2022-12-07T07:53:00;100468.28;;;6.37;89.00
16595;BME280;8410;52.532;13.336;2022-12-07T07:55:28;100466.66;;;6.40;90.78
16595;BME280;8410;52.532;13.336;2022-12-07T07:57:55;100469.94;;;6.02;89.96
16595;BME280;8410;52.532;13.336;2022-12-07T08:00:24;100481.50;;;5.90;91.23
16595;BME280;8410;52.532;13.336;2022-12-07T08:02:51;100477.56;;;5.70;93.90
16595;BME280;8410;52.532;13.336;2022-12-07T08:05:19;100481.31;;;4.95;94.80
16595;BME280;8410;52.532;13.336;2022-12-07T08:07:46;100472.97;;;5.58;96.45
16595;BME280;8410;52.532;13.336;2022-12-07T08:10:14;100484.22;;;5.65;93.85
16595;BME280;8410;52.532;13.336;2022-12-07T08:12:42;100481.25;;;4.92;94.48
16595;BME280;8410;52.532;13.336;2022-12-07T08:15:27;100481.31;;;4.95;94.95
16595;BME280;8410;52.532;13.336;2022-12-07T08:17:55;100475.97;;;5.43;95.34
16595;BME280;8410;52.532;13.336;2022-12-07T08:20:22;100477.22;;;5.58;92.68
16595;BME280;8410;52.532;13.336;2022-12-07T08:22:50;100481.13;;;4.89;94.91
16595;BME280;8410;52.532;13.336;2022-12-07T08:25:17;100477.66;;;5.43;92.82
16595;BME280;8410;52.532;13.336;2022-12-07T08:27:45;100481.41;;;5.56;93.45
16595;BME280;8410;52.532;13.336;2022-12-07T08:30:13;100483.06;;;5.25;91.92
16595;BME280;8410;52.532;13.336;2022-12-07T08:32:44;100500.09;;;4.97;93.77
16595;BME280;8410;52.532;13.336;2022-12-07T08:35:11;100496.31;;;4.86;92.40
16595;BME280;8410;52.532;13.336;2022-12-07T08:37:39;100491.66;;;5.27;92.73
16595;BME280;8410;52.532;13.336;2022-12-07T08:40:08;100487.84;;;5.43;91.60
16595;BME280;8410;52.532;13.336;2022-12-07T08:42:36;100497.75;;;5.05;90.03
16595;BME280;8410;52.532;13.336;2022-12-07T08:45:08;100494.84;;;4.93;89.32
16595;BME280;8410;52.532;13.336;2022-12-07T08:47:37;100503.19;;;5.16;89.52
16595;BME280;8410;52.532;13.336;2022-12-07T08:50:08;100501.22;;;5.05;88.30
16595;BME280;8410;52.532;13.336;2022-12-07T08:52:38;100511.28;;;4.75;89.34
16595;BME280;8410;52.532;13.336;2022-12-07T08:55:09;100507.75;;;4.97;87.87
16595;BME280;8410;52.532;13.336;2022-12-07T08:57:38;100505.13;;;5.23;86.94
16595;BME280;8410;52.532;13.336;2022-12-07T09:00:07;100512.16;;;5.30;86.14
16595;BME280;8410;52.532;13.336;2022-12-07T09:02:35;100514.28;;;4.89;86.12
16595;BME280;8410;52.532;13.336;2022-12-07T09:05:03;100524.78;;;4.71;86.34
16595;BME280;8410;52.532;13.336;2022-12-07T09:07:33;100534.97;;;4.71;87.08
16595;BME280;8410;52.532;13.336;2022-12-07T09:10:02;100534.34;;;4.53;86.37
16595;BME280;8410;52.532;13.336;2022-12-07T09:12:30;100531.53;;;4.45;86.30
16595;BME280;8410;52.532;13.336;2022-12-07T09:14:58;100538.22;;;4.67;86.33
16595;BME280;8410;52.532;13.336;2022-12-07T09:17:26;100537.50;;;4.46;85.96
16595;BME280;8410;52.532;13.336;2022-12-07T09:19:54;100537.75;;;4.28;86.14
16595;BME280;8410;52.532;13.336;2022-12-07T09:22:21;100541.09;;;4.51;86.34
16595;BME280;8410;52.532;13.336;2022-12-07T09:24:50;100530.31;;;4.59;85.44
16595;BME280;8410;52.532;13.336;2022-12-07T09:27:18;100542.47;;;4.67;85.46
16595;BME280;8410;52.532;13.336;2022-12-07T09:29:45;100537.59;;;4.49;85.88
16595;BME280;8410;52.532;13.336;2022-12-07T09:32:12;100539.19;;;4.45;86.19
16595;BME280;8410;52.532;13.336;2022-12-07T09:34:40;100544.41;;;4.24;86.46
16595;BME280;8410;52.532;13.336;2022-12-07T09:37:08;100548.16;;;4.34;87.17
16595;BME280;8410;52.532;13.336;2022-12-07T09:39:37;100544.91;;;4.14;88.35
16595;BME280;8410;52.532;13.336;2022-12-07T09:42:26;100547.28;;;4.57;85.69
16595;BME280;8410;52.532;13.336;2022-12-07T09:44:54;100551.38;;;4.54;85.90
16595;BME280;8410;52.532;13.336;2022-12-07T09:47:22;100565.50;;;4.70;85.10
16595;BME280;8410;52.532;13.336;2022-12-07T09:49:49;100564.38;;;4.36;84.05
16595;BME280;8410;52.532;13.336;2022-12-07T09:52:19;100560.53;;;3.99;85.03
16595;BME280;8410;52.532;13.336;2022-12-07T09:54:50;100555.44;;;3.99;85.84
16595;BME280;8410;52.532;13.336;2022-12-07T09:57:27;100550.25;;;4.20;84.32
16595;BME280;8410;52.532;13.336;2022-12-07T09:59:56;100554.44;;;3.95;84.94
16595;BME280;8410;52.532;13.336;2022-12-07T10:02:35;100559.53;;;4.19;85.85
16595;BME280;8410;52.532;13.336;2022-12-07T10:05:04;100566.38;;;3.96;86.47
16595;BME280;8410;52.532;13.336;2022-12-07T10:07:32;100562.16;;;3.97;85.82
16595;BME280;8410;52.532;13.336;2022-12-07T10:10:03;100571.78;;;4.06;86.50
16595;BME280;8410;52.532;13.336;2022-12-07T10:12:52;100560.81;;;3.84;87.48
16595;BME280;8410;52.532;13.336;2022-12-07T10:15:20;100561.88;;;4.13;85.99
16595;BME280;8410;52.532;13.336;2022-12-07T10:17:49;100563.13;;;4.25;86.47
16595;BME280;8410;52.532;13.336;2022-12-07T10:20:23;100565.00;;;4.30;85.44
16595;BME280;8410;52.532;13.336;2022-12-07T10:22:59;100563.75;;;4.43;85.35
16595;BME280;8410;52.532;13.336;2022-12-07T10:25:30;100555.09;;;4.89;84.95
16595;BME280;8410;52.532;13.336;2022-12-07T10:28:14;100556.53;;;4.81;84.45
16595;BME280;8410;52.532;13.336;2022-12-07T10:30:54;100557.00;;;4.69;84.75
16595;BME280;8410;52.532;13.336;2022-12-07T10:33:32;100566.00;;;4.59;85.47
16595;BME280;8410;52.532;13.336;2022-12-07T10:36:01;100555.81;;;4.59;86.03
16595;BME280;8410;52.532;13.336;2022-12-07T10:38:44;100559.06;;;4.81;85.02
16595;BME280;8410;52.532;13.336;2022-12-07T10:41:12;100554.78;;;4.80;86.44
16595;BME280;8410;52.532;13.336;2022-12-07T10:43:49;100561.34;;;4.99;85.13
16595;BME280;8410;52.532;13.336;2022-12-07T10:46:43;100557.09;;;4.72;84.62
16595;BME280;8410;52.532;13.336;2022-12-07T10:49:29;100552.94;;;5.01;84.38
16595;BME280;8410;52.532;13.336;2022-12-07T10:52:08;100553.56;;;4.43;87.37
16595;BME280;8410;52.532;13.336;2022-12-07T10:54:44;100549.69;;;4.80;87.02
16595;BME280;8410;52.532;13.336;2022-12-07T10:57:32;100549.97;;;4.89;85.79
16595;BME280;8410;52.532;13.336;2022-12-07T11:00:18;100550.19;;;4.70;86.82
16595;BME280;8410;52.532;13.336;2022-12-07T11:02:58;100553.88;;;4.78;88.02
16595;BME280;8410;52.532;13.336;2022-12-07T11:05:38;100551.03;;;4.69;86.92
16595;BME280;8410;52.532;13.336;2022-12-07T11:08:16;100538.81;;;5.13;87.39
16595;BME280;8410;52.532;13.336;2022-12-07T11:10:51;100540.38;;;5.35;86.19
16595;BME280;8410;52.532;13.336;2022-12-07T11:13:25;100543.16;;;4.88;86.94
16595;BME280;8410;52.532;13.336;2022-12-07T11:16:07;100537.53;;;5.25;86.75
16595;BME280;8410;52.532;13.336;2022-12-07T11:18:48;100546.88;;;4.72;85.96
16595;BME280;8410;52.532;13.336;2022-12-07T11:21:22;100542.47;;;4.67;87.50
16595;BME280;8410;52.532;13.336;2022-12-07T11:23:56;100539.56;;;4.81;87.03
16595;BME280;8410;52.532;13.336;2022-12-07T11:26:38;100540.00;;;4.95;87.42
16595;BME280;8410;52.532;13.336;2022-12-07T11:29:21;100524.09;;;5.04;86.57
16595;BME280;8410;52.532;13.336;2022-12-07T11:31:59;100525.50;;;4.94;87.34
16595;BME280;8410;52.532;13.336;2022-12-07T11:34:37;100521.16;;;5.47;85.66
16595;BME280;8410;52.532;13.336;2022-12-07T11:37:10;100520.81;;;4.81;88.00
16595;BME280;8410;52.532;13.336;2022-12-07T11:39:44;100521.00;;;5.71;85.11
16595;BME280;8410;52.532;13.336;2022-12-07T11:42:20;100514.59;;;5.56;84.48
16595;BME280;8410;52.532;13.336;2022-12-07T11:44:52;100519.97;;;5.65;83.80
16595;BME280;8410;52.532;13.336;2022-12-07T11:47:27;100511.47;;;5.94;84.28
16595;BME280;8410;52.532;13.336;2022-12-07T11:50:03;100513.63;;;5.81;84.13
16595;BME280;8410;52.532;13.336;2022-12-07T11:52:41;100515.81;;;5.68;82.65
16595;BME280;8410;52.532;13.336;2022-12-07T11:55:18;100513.78;;;5.28;84.89
16595;BME280;8410;52.532;13.336;2022-12-07T11:57:51;100508.06;;;5.37;84.85
16595;BME280;8410;52.532;13.336;2022-12-07T12:00:20;100508.28;;;5.16;86.27
16595;BME280;8410;52.532;13.336;2022-12-07T12:02:53;100508.47;;;4.93;88.02
16595;BME280;8410;52.532;13.336;2022-12-07T12:05:25;100503.78;;;5.64;84.97
16595;BME280;8410;52.532;13.336;2022-12-07T12:08:21;100496.53;;;5.49;84.28
16595;BME280;8410;52.532;13.336;2022-12-07T12:13:10;100491.28;;;5.73;84.27
16595;BME280;8410;52.532;13.336;2022-12-07T12:23:06;100490.47;;;6.05;83.69
16595;BME280;8410;52.532;13.336;2022-12-07T12:28:58;100485.53;;;5.81;84.52
16595;BME280;8410;52.532;13.336;2022-12-07T12:30:34;100479.72;;;5.86;85.39
16595;BME280;8410;52.532;13.336;2022-12-07T12:40:40;100471.44;;;6.61;81.76
16595;BME280;8410;52.532;13.336;2022-12-07T12:43:48;100482.44;;;6.24;82.30
16595;BME280;8410;52.532;13.336;2022-12-07T12:46:51;100483.75;;;6.76;82.74
16595;BME280;8410;52.532;13.336;2022-12-07T12:49:40;100476.94;;;6.78;82.71
16595;BME280;8410;52.532;13.336;2022-12-07T12:56:12;100474.31;;;6.75;80.83
16595;BME280;8410;52.532;13.336;2022-12-07T12:59:26;100461.16;;;7.36;80.14
16595;BME280;8410;52.532;13.336;2022-12-07T13:02:20;100472.38;;;7.41;79.38
16595;BME280;8410;52.532;13.336;2022-12-07T13:05:14;100468.69;;;7.28;79.71
16595;BME280;8410;52.532;13.336;2022-12-07T13:08:02;100471.66;;;7.48;78.49
16595;BME280;8410;52.532;13.336;2022-12-07T13:10:47;100466.38;;;7.40;77.70
16595;BME280;8410;52.532;13.336;2022-12-07T13:13:52;100461.41;;;7.07;79.41
16595;BME280;8410;52.532;13.336;2022-12-07T13:16:47;100464.53;;;7.35;78.29
16595;BME280;8410;52.532;13.336;2022-12-07T13:22:58;100466.28;;;6.60;81.82
16595;BME280;8410;52.532;13.336;2022-12-07T13:25:55;100461.91;;;6.21;82.09
16595;BME280;8410;52.532;13.336;2022-12-07T13:28:46;100468.53;;;6.82;81.98
16595;BME280;8410;52.532;13.336;2022-12-07T13:31:25;100461.69;;;7.19;79.12
16595;BME280;8410;52.532;13.336;2022-12-07T13:34:31;100461.91;;;6.91;79.60
16595;BME280;8410;52.532;13.336;2022-12-07T13:37:15;100458.34;;;6.49;81.46
16595;BME280;8410;52.532;13.336;2022-12-07T13:39:59;100465.91;;;6.79;83.93
16595;BME280;8410;52.532;13.336;2022-12-07T13:42:44;100459.59;;;7.03;79.62
16595;BME280;8410;52.532;13.336;2022-12-07T13:45:34;100454.97;;;6.87;82.72
16595;BME280;8410;52.532;13.336;2022-12-07T13:48:30;100462.31;;;7.09;80.96
16595;BME280;8410;52.532;13.336;2022-12-07T13:51:19;100466.97;;;6.53;81.73
16595;BME280;8410;52.532;13.336;2022-12-07T13:54:18;100469.38;;;7.19;80.82
16595;BME280;8410;52.532;13.336;2022-12-07T13:57:06;100466.47;;;7.45;81.39
16595;BME280;8410;52.532;13.336;2022-12-07T13:59:51;100469.88;;;7.04;80.76
16595;BME280;8410;52.532;13.336;2022-12-07T14:02:34;100463.41;;;7.20;80.98
16595;BME280;8410;52.532;13.336;2022-12-07T14:05:23;100473.22;;;6.64;82.43
16595;BME280;8410;52.532;13.336;2022-12-07T14:08:33;100462.66;;;7.24;80.65